Moose River, Canada
Current Conditions -  °F | °C
As of 11:00 AM on Wednesday 26 Nov 2014 (Local Time) from CYMO Reporting Station
Clear Clear  
Wind Chill: -16°   Ceiling: Unl
Heat Index: -2°   Visibility: 9mi
Dew Point: -9°   Wind: 7mph
Humidity: 71%   Direction: 240°WSW
Pressure: 30.31"   Gusts: NA
Location:  50.8°N, 81.28°W
Report Text: CYMO 261600Z AUTO 24006KT 9SM CLR M19/M23 A3031 RMK SLP265
Loading
Personal Weather Stations






























Interactive Weather Map New forecast layout! Learn more

10-Day Weather Forecast

Advertisements
Track Severe Weather on mobile